Time;durP1;ratioP1;P1;durP2;ratioP2;P2;SDS_P1;SDS_P2;PMS_P1;PMS_P2;Temp;Humidity;BMP_temperature;BMP_pressure;BME280_temperature;BME280_humidity;BME280_pressure;Samples;Min_cycle;Max_cycle;Signal;HPM_P1;HPM_P2
2021/08/25 00:00:03;;;;;;;16.63;15.63;;;11.80;99.90;;;;;;5035958;28;20463;-73
2021/08/25 00:02:30;;;;;;;16.57;15.53;;;11.80;99.90;;;;;;5026073;28;20444;-71
2021/08/25 00:04:58;;;;;;;17.37;16.07;;;11.70;99.90;;;;;;5032842;28;20489;-70
2021/08/25 00:07:27;;;;;;;17.43;16.43;;;11.60;99.90;;;;;;5026686;28;21136;-71
2021/08/25 00:09:55;;;;;;;17.23;16.00;;;11.60;99.90;;;;;;5030338;28;20461;-70
2021/08/25 00:12:22;;;;;;;19.30;18.00;;;11.50;99.90;;;;;;5032422;28;20453;-71
2021/08/25 00:14:49;;;;;;;17.40;16.33;;;11.50;99.90;;;;;;5039654;28;20468;-71
2021/08/25 00:17:18;;;;;;;18.13;16.93;;;11.40;99.90;;;;;;5032458;28;20481;-71
2021/08/25 00:19:45;;;;;;;18.43;17.03;;;11.30;99.90;;;;;;5031670;28;20463;-71
2021/08/25 00:22:13;;;;;;;17.67;16.57;;;11.30;99.90;;;;;;5036280;28;20500;-70
2021/08/25 00:24:40;;;;;;;18.37;16.87;;;11.30;99.90;;;;;;5035174;28;20457;-69
2021/08/25 00:27:07;;;;;;;18.37;17.23;;;11.30;99.90;;;;;;5036228;27;20560;-70
2021/08/25 00:29:34;;;;;;;17.93;16.70;;;11.30;99.90;;;;;;5047917;27;20456;-70
2021/08/25 00:32:01;;;;;;;17.90;16.70;;;11.30;99.90;;;;;;5025816;28;20838;-71
2021/08/25 00:34:28;;;;;;;18.07;16.87;;;11.40;99.90;;;;;;5034155;28;20453;-72
2021/08/25 00:36:55;;;;;;;17.30;16.20;;;11.30;99.90;;;;;;5026811;28;20465;-72
2021/08/25 00:39:23;;;;;;;19.13;17.83;;;11.40;99.90;;;;;;5025345;28;20457;-71
2021/08/25 00:41:50;;;;;;;17.37;16.10;;;11.40;99.90;;;;;;5032145;28;20491;-71
2021/08/25 00:44:17;;;;;;;17.50;16.50;;;11.40;99.90;;;;;;5031046;28;20539;-70
2021/08/25 00:46:45;;;;;;;16.93;15.73;;;11.40;99.90;;;;;;5032680;28;20465;-71
2021/08/25 00:49:13;;;;;;;17.20;16.10;;;11.40;99.90;;;;;;5032829;28;20448;-72
2021/08/25 00:51:41;;;;;;;17.03;16.03;;;11.40;99.90;;;;;;5035362;28;20456;-71
2021/08/25 00:54:09;;;;;;;17.70;16.60;;;11.40;99.90;;;;;;5035666;28;20460;-69
2021/08/25 00:56:37;;;;;;;17.50;16.40;;;11.30;99.90;;;;;;5038236;28;20516;-71
2021/08/25 00:59:06;;;;;;;18.97;17.67;;;11.30;99.90;;;;;;5038060;28;20463;-71
2021/08/25 01:01:44;;;;;;;18.80;17.30;;;11.30;99.90;;;;;;5034477;28;20492;-70
2021/08/25 01:04:18;;;;;;;18.30;17.00;;;11.30;99.90;;;;;;5035728;28;20460;-72
2021/08/25 01:06:46;;;;;;;17.53;16.40;;;11.30;99.90;;;;;;5023900;28;20469;-72
2021/08/25 01:09:13;;;;;;;19.33;17.93;;;11.20;99.90;;;;;;5031226;28;20468;-71
2021/08/25 01:11:47;;;;;;;18.30;17.10;;;11.10;99.90;;;;;;5032683;28;20465;-72
2021/08/25 01:14:15;;;;;;;17.67;16.57;;;11.20;99.90;;;;;;5035757;28;20455;-71
2021/08/25 01:16:43;;;;;;;18.43;17.43;;;11.20;99.90;;;;;;5031981;28;20992;-70
2021/08/25 01:19:14;;;;;;;19.67;18.07;;;11.10;99.90;;;;;;5036306;28;20459;-71
2021/08/25 01:21:41;;;;;;;19.17;17.87;;;11.00;99.90;;;;;;5034893;28;20500;-70
2021/08/25 01:24:09;;;;;;;18.97;17.40;;;11.10;99.90;;;;;;5036059;28;20457;-72
2021/08/25 01:26:36;;;;;;;20.37;18.80;;;11.00;99.90;;;;;;5032484;28;20552;-70
2021/08/25 01:29:10;;;;;;;19.60;18.13;;;11.00;99.90;;;;;;5037166;27;20461;-71
2021/08/25 01:31:38;;;;;;;20.47;18.97;;;11.00;99.90;;;;;;5031105;28;20949;-70
2021/08/25 01:34:07;;;;;;;19.23;18.03;;;11.00;99.90;;;;;;5029782;28;20498;-71
2021/08/25 01:36:34;;;;;;;18.87;17.67;;;10.90;99.90;;;;;;5033159;28;20464;-72
2021/08/25 01:39:01;;;;;;;19.33;18.13;;;10.90;99.90;;;;;;5028947;28;20468;-71
2021/08/25 01:41:29;;;;;;;20.13;18.83;;;10.90;99.90;;;;;;5035025;28;20476;-71
2021/08/25 01:43:56;;;;;;;19.20;18.00;;;10.90;99.90;;;;;;5036381;28;20460;-71
2021/08/25 01:46:27;;;;;;;19.10;17.90;;;10.90;99.90;;;;;;5032176;28;20449;-72
2021/08/25 01:48:56;;;;;;;20.90;19.20;;;10.90;99.90;;;;;;5032292;28;20464;-71
2021/08/25 01:51:24;;;;;;;19.93;18.53;;;10.90;99.90;;;;;;5033224;28;20812;-70
2021/08/25 01:53:51;;;;;;;20.03;18.73;;;10.80;99.90;;;;;;5028158;28;20449;-70
2021/08/25 01:56:18;;;;;;;19.67;18.57;;;10.80;99.90;;;;;;5038409;28;20459;-71
2021/08/25 01:58:45;;;;;;;20.20;18.90;;;10.80;99.90;;;;;;5028093;28;20465;-70
2021/08/25 02:01:12;;;;;;;21.57;20.07;;;10.70;99.90;;;;;;5028635;27;20473;-72
2021/08/25 02:03:38;;;;;;;21.00;19.70;;;10.70;99.90;;;;;;5037228;28;20491;-70
2021/08/25 02:06:06;;;;;;;20.17;18.77;;;10.80;99.90;;;;;;5027339;28;20476;-71
2021/08/25 02:08:33;;;;;;;20.20;18.77;;;10.90;99.90;;;;;;5027641;28;20471;-71
2021/08/25 02:11:00;;;;;;;19.43;18.13;;;10.80;99.90;;;;;;5026118;28;20468;-71
2021/08/25 02:13:27;;;;;;;20.30;18.90;;;10.80;99.90;;;;;;5030579;28;20455;-71
2021/08/25 02:15:55;;;;;;;20.90;18.90;;;10.80;99.90;;;;;;5029993;28;20495;-70
2021/08/25 02:18:22;;;;;;;20.57;19.37;;;10.80;99.90;;;;;;5037880;28;20962;-71
2021/08/25 02:20:48;;;;;;;21.13;19.63;;;10.70;99.90;;;;;;5032172;28;20460;-72
2021/08/25 02:23:17;;;;;;;20.37;19.07;;;10.70;99.90;;;;;;5040059;28;21029;-70
2021/08/25 02:25:44;;;;;;;21.50;20.00;;;10.60;99.90;;;;;;5033351;28;20457;-71
2021/08/25 02:28:11;;;;;;;22.83;21.17;;;10.60;99.90;;;;;;5032889;28;20452;-71
2021/08/25 02:30:38;;;;;;;22.23;20.43;;;10.50;99.90;;;;;;5036279;28;20455;-72
2021/08/25 02:33:05;;;;;;;21.33;19.83;;;10.60;99.90;;;;;;5028801;28;20466;-71
2021/08/25 02:35:33;;;;;;;22.13;20.53;;;10.60;99.90;;;;;;5032576;28;20461;-70
2021/08/25 02:38:00;;;;;;;21.37;19.87;;;10.70;99.90;;;;;;5031822;28;20465;-70
2021/08/25 02:40:28;;;;;;;21.60;20.00;;;10.70;99.90;;;;;;5027687;28;20938;-71
2021/08/25 02:42:55;;;;;;;22.20;20.50;;;10.60;99.90;;;;;;5027808;28;20485;-72
2021/08/25 02:45:22;;;;;;;23.03;21.23;;;10.60;99.90;;;;;;5036046;28;20518;-71
2021/08/25 02:47:48;;;;;;;22.27;20.63;;;10.60;99.90;;;;;;5037766;28;20460;-71
2021/08/25 02:50:15;;;;;;;23.83;22.07;;;10.50;99.90;;;;;;5040818;28;20549;-70
2021/08/25 02:52:42;;;;;;;22.57;20.97;;;10.50;99.90;;;;;;5031859;28;20946;-70
2021/08/25 02:55:10;;;;;;;23.90;22.20;;;10.40;99.90;;;;;;5032348;28;20808;-72
2021/08/25 02:57:38;;;;;;;23.00;21.00;;;10.50;99.90;;;;;;5033528;28;20483;-71
2021/08/25 03:00:07;;;;;;;23.60;21.90;;;10.40;99.90;;;;;;5038998;28;20457;-71
2021/08/25 03:02:34;;;;;;;23.60;21.40;;;10.40;99.90;;;;;;5022518;28;20523;-70
2021/08/25 03:05:01;;;;;;;23.23;21.43;;;10.40;99.90;;;;;;5036232;28;20898;-72
2021/08/25 03:07:28;;;;;;;23.77;21.67;;;10.40;99.90;;;;;;5030818;28;20491;-71
2021/08/25 03:09:55;;;;;;;24.40;22.27;;;10.30;99.90;;;;;;5035019;28;20482;-70
2021/08/25 03:12:22;;;;;;;23.23;21.60;;;10.30;99.90;;;;;;5037140;28;20559;-71
2021/08/25 03:14:51;;;;;;;23.13;21.10;;;10.30;99.90;;;;;;5033622;28;20469;-71
2021/08/25 03:17:17;;;;;;;22.57;20.97;;;10.30;99.90;;;;;;5035273;28;20481;-72
2021/08/25 03:19:44;;;;;;;24.07;22.27;;;10.30;99.90;;;;;;5035041;28;20870;-72
2021/08/25 03:22:12;;;;;;;24.70;22.83;;;10.30;99.90;;;;;;5031672;28;20564;-70
2021/08/25 03:24:38;;;;;;;22.23;20.67;;;10.30;99.90;;;;;;5037259;28;20495;-71
2021/08/25 03:27:05;;;;;;;23.67;21.97;;;10.40;99.90;;;;;;5022250;27;20961;-70
2021/08/25 03:29:32;;;;;;;22.63;20.73;;;10.30;99.90;;;;;;5038597;27;20839;-70
2021/08/25 03:32:01;;;;;;;23.43;21.50;;;10.30;99.90;;;;;;5031715;28;20893;-72
2021/08/25 03:34:28;;;;;;;23.20;21.43;;;10.20;99.90;;;;;;5031828;28;20464;-72
2021/08/25 03:36:55;;;;;;;23.60;22.00;;;10.20;99.90;;;;;;5035165;28;20516;-71
2021/08/25 03:39:21;;;;;;;23.47;21.50;;;10.10;99.90;;;;;;5032729;28;20456;-72
2021/08/25 03:41:48;;;;;;;24.00;21.73;;;10.00;99.90;;;;;;5028263;28;20487;-72
2021/08/25 03:44:15;;;;;;;24.87;22.97;;;10.00;99.90;;;;;;5038997;28;20972;-72
2021/08/25 03:46:42;;;;;;;25.43;23.50;;;9.90;99.90;;;;;;5032005;28;21273;-72
2021/08/25 03:49:10;;;;;;;23.53;21.83;;;9.80;99.90;;;;;;5034463;28;20483;-71
2021/08/25 03:51:37;;;;;;;24.93;23.03;;;9.70;99.90;;;;;;5033906;28;20536;-70
2021/08/25 03:54:04;;;;;;;26.13;23.40;;;9.70;99.90;;;;;;5031006;28;20796;-71
2021/08/25 03:56:31;;;;;;;26.20;24.07;;;9.80;99.90;;;;;;5033813;28;22818;-72
2021/08/25 03:58:58;;;;;;;24.80;23.03;;;9.90;99.90;;;;;;5033343;28;20457;-72
2021/08/25 04:01:25;;;;;;;23.60;21.80;;;9.70;99.90;;;;;;5020877;28;20480;-70
2021/08/25 04:03:51;;;;;;;23.33;21.23;;;9.60;99.90;;;;;;5037771;28;20447;-70
2021/08/25 04:06:20;;;;;;;22.87;21.13;;;9.50;99.90;;;;;;5023442;28;20463;-71
2021/08/25 04:08:47;;;;;;;27.53;23.43;;;9.40;99.90;;;;;;5023109;28;20459;-71
2021/08/25 04:11:18;;;;;;;25.57;23.23;;;9.40;99.90;;;;;;5033969;28;20821;-71
2021/08/25 04:13:46;;;;;;;24.20;22.30;;;9.40;99.90;;;;;;5035491;28;20463;-71
2021/08/25 04:16:13;;;;;;;24.27;22.33;;;9.40;99.90;;;;;;5034161;28;21010;-70
2021/08/25 04:18:39;;;;;;;24.60;22.90;;;9.40;99.90;;;;;;5037727;28;21177;-71
2021/08/25 04:21:06;;;;;;;23.50;21.90;;;9.40;99.90;;;;;;5022513;28;20456;-71
2021/08/25 04:23:35;;;;;;;21.97;20.57;;;9.30;99.90;;;;;;5035996;28;20495;-71
2021/08/25 04:26:03;;;;;;;23.47;21.43;;;9.30;99.90;;;;;;5032927;28;20465;-72
2021/08/25 04:28:29;;;;;;;22.40;20.83;;;9.30;99.90;;;;;;5031227;27;20519;-71
2021/08/25 04:30:56;;;;;;;23.53;21.50;;;9.20;99.90;;;;;;5029076;28;20818;-72
2021/08/25 04:33:23;;;;;;;22.20;20.57;;;9.20;99.90;;;;;;5026979;28;20452;-72
2021/08/25 04:35:50;;;;;;;22.77;21.00;;;9.20;99.90;;;;;;5038407;28;20478;-70
2021/08/25 04:38:17;;;;;;;24.77;22.63;;;9.20;99.90;;;;;;5040404;28;20451;-72
2021/08/25 04:40:46;;;;;;;24.80;22.43;;;9.20;99.90;;;;;;5028181;28;20472;-71
2021/08/25 04:43:13;;;;;;;23.93;21.93;;;9.10;99.90;;;;;;5033586;28;20488;-70
2021/08/25 04:45:40;;;;;;;26.30;24.00;;;9.20;99.90;;;;;;5032655;28;20562;-71
2021/08/25 04:48:07;;;;;;;26.27;24.03;;;9.10;99.90;;;;;;5040992;28;20826;-70
2021/08/25 04:50:34;;;;;;;23.87;22.00;;;9.20;99.90;;;;;;5037012;28;20986;-71
2021/08/25 04:53:06;;;;;;;24.90;22.97;;;9.10;99.90;;;;;;5037970;28;20548;-72
2021/08/25 04:55:33;;;;;;;24.63;22.80;;;9.10;99.90;;;;;;5026333;28;20723;-71
2021/08/25 04:58:01;;;;;;;24.80;22.90;;;9.10;99.90;;;;;;5033647;28;21041;-72
2021/08/25 05:00:28;;;;;;;24.10;22.40;;;9.10;99.90;;;;;;5034603;28;20476;-71
2021/08/25 05:02:55;;;;;;;24.80;22.80;;;9.00;99.90;;;;;;5024057;28;20599;-71
2021/08/25 05:05:22;;;;;;;24.97;23.07;;;9.10;99.90;;;;;;5019661;28;20558;-71
2021/08/25 05:07:49;;;;;;;26.30;24.07;;;9.20;99.90;;;;;;5028601;28;20449;-71
2021/08/25 05:10:17;;;;;;;26.30;23.90;;;9.20;99.90;;;;;;5028754;28;20943;-70
2021/08/25 05:12:44;;;;;;;25.67;23.50;;;9.30;99.90;;;;;;5026408;28;20456;-70
2021/08/25 05:15:13;;;;;;;26.40;24.10;;;9.30;99.90;;;;;;5029629;28;20461;-72
2021/08/25 05:17:40;;;;;;;26.67;24.40;;;9.40;99.90;;;;;;5022371;28;21126;-71
2021/08/25 05:20:08;;;;;;;27.00;24.80;;;9.50;99.90;;;;;;5024789;28;21112;-71
2021/08/25 05:22:36;;;;;;;26.90;24.40;;;9.70;99.90;;;;;;5032151;28;20567;-70
2021/08/25 05:25:03;;;;;;;26.13;23.87;;;9.70;99.90;;;;;;5019956;28;20461;-71
2021/08/25 05:27:30;;;;;;;28.07;25.47;;;9.80;99.90;;;;;;5013953;28;20475;-70
2021/08/25 05:29:56;;;;;;;26.70;24.50;;;10.00;99.90;;;;;;5022216;27;20555;-70
2021/08/25 05:32:25;;;;;;;26.77;24.67;;;10.00;99.90;;;;;;5027813;28;20453;-70
2021/08/25 05:34:51;;;;;;;27.97;25.47;;;10.10;99.90;;;;;;5023712;28;20461;-72
2021/08/25 05:37:19;;;;;;;28.20;25.60;;;10.20;99.90;;;;;;5025990;28;20457;-71
2021/08/25 05:39:46;;;;;;;28.97;26.03;;;10.20;99.90;;;;;;5026638;28;20951;-71
2021/08/25 05:42:13;;;;;;;28.80;26.40;;;10.30;99.90;;;;;;5028619;28;20883;-71
2021/08/25 05:44:40;;;;;;;29.00;26.17;;;10.30;99.90;;;;;;5026713;28;20471;-71
2021/08/25 05:47:07;;;;;;;29.83;27.33;;;10.40;99.90;;;;;;5033725;28;20556;-70
2021/08/25 05:49:35;;;;;;;29.13;26.93;;;10.50;99.90;;;;;;5031850;28;20457;-71
2021/08/25 05:52:02;;;;;;;26.17;24.20;;;10.60;99.90;;;;;;5025887;28;20555;-71
2021/08/25 05:54:28;;;;;;;26.67;23.63;;;10.60;99.90;;;;;;5023526;28;20469;-70
2021/08/25 05:56:55;;;;;;;26.77;24.10;;;10.70;99.90;;;;;;5020494;28;20476;-70
2021/08/25 05:59:23;;;;;;;26.60;24.47;;;10.80;99.90;;;;;;5020800;28;20499;-71
2021/08/25 06:01:50;;;;;;;27.90;25.50;;;10.80;99.90;;;;;;5017656;28;21138;-71
2021/08/25 06:04:17;;;;;;;30.07;27.33;;;10.90;99.90;;;;;;5019500;28;20460;-70
2021/08/25 06:06:46;;;;;;;30.07;27.40;;;11.00;99.90;;;;;;5013450;28;20461;-70
2021/08/25 06:09:13;;;;;;;32.43;29.57;;;11.10;99.90;;;;;;5024342;28;20563;-70
2021/08/25 06:11:41;;;;;;;30.93;28.37;;;11.10;99.90;;;;;;5021367;28;20959;-71
2021/08/25 06:14:08;;;;;;;32.03;29.07;;;11.20;99.90;;;;;;5020638;28;20459;-71
2021/08/25 06:16:36;;;;;;;31.30;28.47;;;11.30;99.90;;;;;;5020458;28;20491;-71
2021/08/25 06:19:03;;;;;;;30.27;26.63;;;11.40;99.90;;;;;;5016300;28;20457;-70
2021/08/25 06:21:30;;;;;;;31.37;28.37;;;11.50;99.90;;;;;;5022064;28;20469;-71
2021/08/25 06:23:59;;;;;;;28.80;26.23;;;11.60;99.90;;;;;;5023631;28;20492;-71
2021/08/25 06:26:26;;;;;;;32.23;29.30;;;11.80;99.90;;;;;;5018715;28;20600;-70
2021/08/25 06:28:53;;;;;;;29.23;26.90;;;12.00;99.90;;;;;;5036272;28;20547;-70
2021/08/25 06:31:21;;;;;;;30.77;28.03;;;12.10;99.90;;;;;;5023824;28;20471;-70
2021/08/25 06:33:49;;;;;;;31.30;28.27;;;12.30;99.90;;;;;;5023912;28;20459;-71
2021/08/25 06:36:17;;;;;;;30.93;27.93;;;12.40;99.90;;;;;;5030974;28;20473;-71
2021/08/25 06:38:44;;;;;;;30.10;26.90;;;12.60;99.90;;;;;;5028141;28;20460;-71
2021/08/25 06:41:13;;;;;;;27.90;25.53;;;12.70;99.90;;;;;;5027595;28;20463;-72
2021/08/25 06:43:40;;;;;;;29.97;27.10;;;12.80;99.90;;;;;;5026707;28;20968;-70
2021/08/25 06:46:07;;;;;;;29.57;26.57;;;12.90;99.90;;;;;;5025547;28;20842;-72
2021/08/25 06:48:35;;;;;;;30.70;27.90;;;13.10;99.90;;;;;;5017306;28;20557;-70
2021/08/25 06:51:02;;;;;;;28.97;26.57;;;13.20;99.90;;;;;;5026352;28;20487;-71
2021/08/25 06:53:30;;;;;;;29.97;27.63;;;13.40;99.90;;;;;;5024532;28;21365;-71
2021/08/25 06:55:57;;;;;;;29.47;27.13;;;13.60;99.90;;;;;;5024519;28;20966;-71
2021/08/25 06:58:27;;;;;;;29.47;26.87;;;13.70;99.90;;;;;;5027003;28;20481;-70
2021/08/25 07:00:54;;;;;;;28.60;26.10;;;13.90;99.90;;;;;;5018237;28;20474;-70
2021/08/25 07:03:21;;;;;;;27.63;25.50;;;14.00;99.90;;;;;;5022002;28;20484;-71
2021/08/25 07:05:48;;;;;;;29.17;26.37;;;14.10;99.90;;;;;;5026340;28;20536;-73
2021/08/25 07:08:16;;;;;;;26.80;24.50;;;14.30;99.90;;;;;;5023505;28;20472;-71
2021/08/25 07:10:43;;;;;;;27.60;25.20;;;14.40;99.90;;;;;;5022375;28;20558;-71
2021/08/25 07:13:11;;;;;;;25.90;23.80;;;14.50;99.90;;;;;;5030012;28;20465;-71
2021/08/25 07:15:39;;;;;;;26.07;23.90;;;14.70;99.90;;;;;;5021814;28;20526;-72
2021/08/25 07:18:06;;;;;;;25.27;23.37;;;14.90;99.90;;;;;;5027047;28;20460;-71
2021/08/25 07:20:33;;;;;;;23.23;21.23;;;14.90;99.90;;;;;;5025854;28;20457;-72
2021/08/25 07:23:00;;;;;;;22.13;20.67;;;15.00;99.90;;;;;;5030741;28;20491;-71
2021/08/25 07:25:27;;;;;;;24.17;22.57;;;15.20;99.90;;;;;;5033912;28;20476;-71
2021/08/25 07:27:54;;;;;;;20.27;18.90;;;15.30;99.90;;;;;;5036745;27;20463;-71
2021/08/25 07:30:22;;;;;;;20.20;18.90;;;15.40;99.90;;;;;;5026424;28;20456;-70
2021/08/25 07:32:50;;;;;;;20.60;19.20;;;15.50;99.90;;;;;;5026950;28;20475;-71
2021/08/25 07:35:17;;;;;;;21.80;20.40;;;15.70;99.90;;;;;;5011891;28;20457;-72
2021/08/25 07:37:45;;;;;;;22.40;20.80;;;15.90;99.90;;;;;;5022709;28;20480;-72
2021/08/25 07:40:12;;;;;;;21.27;19.70;;;15.90;99.90;;;;;;5024217;28;20464;-70
2021/08/25 07:42:39;;;;;;;21.80;20.40;;;16.00;99.90;;;;;;5022151;28;20511;-72
2021/08/25 07:45:07;;;;;;;21.40;19.90;;;16.10;99.90;;;;;;5021295;28;20456;-73
2021/08/25 07:47:34;;;;;;;21.77;20.10;;;16.30;99.90;;;;;;5027841;28;20464;-71
2021/08/25 07:50:02;;;;;;;20.07;18.37;;;16.40;99.90;;;;;;5023579;28;20470;-72
2021/08/25 07:52:29;;;;;;;20.80;19.13;;;16.60;99.90;;;;;;5030104;28;20461;-73
2021/08/25 07:54:56;;;;;;;20.23;18.63;;;16.80;99.90;;;;;;5026591;28;20456;-72
2021/08/25 07:57:23;;;;;;;20.57;19.10;;;16.90;99.90;;;;;;5032575;28;20480;-71
2021/08/25 07:59:50;;;;;;;21.07;19.23;;;17.10;99.90;;;;;;5024821;28;20460;-72
2021/08/25 08:02:17;;;;;;;21.57;19.40;;;17.20;99.90;;;;;;5030507;28;20468;-70
2021/08/25 08:04:45;;;;;;;20.60;18.97;;;17.30;99.90;;;;;;5029573;28;20493;-69
2021/08/25 08:07:14;;;;;;;20.33;18.83;;;17.40;99.90;;;;;;5031347;28;20464;-70
2021/08/25 08:09:42;;;;;;;19.90;18.30;;;17.40;99.90;;;;;;5027785;28;20479;-70
2021/08/25 08:12:09;;;;;;;19.50;18.10;;;17.50;99.90;;;;;;5035852;28;20815;-71
2021/08/25 08:14:36;;;;;;;19.93;18.47;;;17.50;99.90;;;;;;5034956;28;20511;-72
2021/08/25 08:17:05;;;;;;;20.00;18.60;;;17.70;99.90;;;;;;5026637;28;20484;-72
2021/08/25 08:19:34;;;;;;;20.20;18.70;;;17.90;99.90;;;;;;5028325;28;20866;-72
2021/08/25 08:22:02;;;;;;;19.70;18.30;;;18.00;99.90;;;;;;5028696;28;20954;-70
2021/08/25 08:24:31;;;;;;;20.33;18.93;;;18.20;99.90;;;;;;5027177;28;20489;-72
2021/08/25 08:26:59;;;;;;;19.77;18.37;;;18.30;99.90;;;;;;5028405;28;20464;-71
2021/08/25 08:29:27;;;;;;;20.63;18.77;;;18.50;99.90;;;;;;5048666;27;20461;-72
2021/08/25 08:31:55;;;;;;;18.60;17.30;;;18.60;99.90;;;;;;5024059;28;21366;-70
2021/08/25 08:34:22;;;;;;;17.87;16.50;;;18.70;99.90;;;;;;5018867;28;20830;-71
2021/08/25 08:36:49;;;;;;;19.10;17.70;;;18.70;99.90;;;;;;5024069;28;21417;-72
2021/08/25 08:39:16;;;;;;;19.23;17.63;;;18.80;99.90;;;;;;5020000;28;20877;-72
2021/08/25 08:41:45;;;;;;;18.87;17.60;;;18.90;99.90;;;;;;5023441;28;20460;-72
2021/08/25 08:44:18;;;;;;;19.90;18.60;;;19.00;99.90;;;;;;5019961;28;20510;-72
2021/08/25 08:46:48;;;;;;;19.13;17.80;;;19.20;99.90;;;;;;5027525;28;20457;-70
2021/08/25 08:49:16;;;;;;;18.40;16.90;;;19.30;99.90;;;;;;5021842;28;20456;-72
2021/08/25 08:51:44;;;;;;;18.07;16.80;;;19.50;99.90;;;;;;5022742;28;20461;-73
2021/08/25 08:54:12;;;;;;;18.30;17.10;;;19.70;99.90;;;;;;5028274;28;20472;-72
2021/08/25 08:56:39;;;;;;;17.87;16.67;;;19.80;99.90;;;;;;5026675;28;20461;-72
2021/08/25 08:59:08;;;;;;;18.90;17.23;;;20.00;99.90;;;;;;5029009;28;21084;-70
2021/08/25 09:01:36;;;;;;;17.37;16.07;;;20.80;99.90;;;;;;5023462;28;20552;-71
2021/08/25 09:04:03;;;;;;;19.20;17.40;;;21.70;99.90;;;;;;5028466;28;20492;-69
2021/08/25 09:06:44;;;;;;;18.20;16.90;;;22.70;99.90;;;;;;5022821;28;20469;-69
2021/08/25 09:09:11;;;;;;;17.37;16.30;;;23.70;99.90;;;;;;5028231;28;20456;-69
2021/08/25 09:11:49;;;;;;;18.10;16.90;;;24.30;99.90;;;;;;5026140;28;20452;-70
2021/08/25 09:14:18;;;;;;;18.30;16.80;;;25.30;99.90;;;;;;5029710;28;20459;-69
2021/08/25 09:16:46;;;;;;;17.93;16.73;;;26.10;99.90;;;;;;5031340;28;20488;-70
2021/08/25 09:19:16;;;;;;;18.10;17.03;;;26.50;99.90;;;;;;5027509;28;20951;-69
2021/08/25 09:21:45;;;;;;;18.87;17.63;;;27.20;99.90;;;;;;5024453;28;20565;-71
2021/08/25 09:24:14;;;;;;;18.17;17.17;;;27.70;97.20;;;;;;5024463;28;20576;-69
2021/08/25 09:27:05;;;;;;;18.33;17.17;;;28.30;97.00;;;;;;5020107;28;20951;-72
2021/08/25 09:29:36;;;;;;;19.83;18.40;;;28.60;93.50;;;;;;5024932;28;20456;-71
2021/08/25 09:32:03;;;;;;;18.53;17.30;;;29.00;93.00;;;;;;5026931;28;20474;-70
2021/08/25 09:34:32;;;;;;;19.70;18.23;;;29.00;90.10;;;;;;5023655;28;20457;-71
2021/08/25 09:37:07;;;;;;;17.47;16.43;;;29.20;89.70;;;;;;5035986;28;20677;-70
2021/08/25 09:39:34;;;;;;;16.07;15.27;;;29.20;84.90;;;;;;5028119;28;20471;-73
2021/08/25 09:42:04;;;;;;;17.50;16.40;;;28.70;82.40;;;;;;5027970;28;20505;-70
2021/08/25 09:44:33;;;;;;;16.33;15.37;;;28.40;83.40;;;;;;5021678;28;20489;-70
2021/08/25 09:47:00;;;;;;;17.43;16.53;;;27.90;82.20;;;;;;5020553;28;20460;-70
2021/08/25 09:49:28;;;;;;;16.70;15.57;;;27.90;83.00;;;;;;5027215;28;20469;-70
2021/08/25 09:51:56;;;;;;;17.10;15.70;;;27.60;80.80;;;;;;5033457;28;20460;-70
2021/08/25 09:54:23;;;;;;;16.20;15.13;;;27.30;82.20;;;;;;5027447;28;20554;-69
2021/08/25 09:56:53;;;;;;;16.20;15.20;;;27.10;84.70;;;;;;5028085;28;20480;-71
2021/08/25 09:59:21;;;;;;;16.33;15.33;;;27.70;81.30;;;;;;5031533;28;20460;-70
2021/08/25 10:01:51;;;;;;;17.00;16.00;;;28.00;75.90;;;;;;5023784;28;20989;-70
2021/08/25 10:04:19;;;;;;;16.90;15.63;;;28.20;74.50;;;;;;5026797;28;21014;-72
2021/08/25 10:06:47;;;;;;;16.40;15.33;;;28.90;74.70;;;;;;5019729;28;20452;-72
2021/08/25 10:09:15;;;;;;;16.03;15.13;;;29.20;72.30;;;;;;5023547;28;20482;-73
2021/08/25 10:11:45;;;;;;;16.00;15.10;;;29.40;71.50;;;;;;5025217;28;20460;-72
2021/08/25 10:14:16;;;;;;;15.13;14.13;;;29.60;67.20;;;;;;5023276;28;20452;-71
2021/08/25 10:16:44;;;;;;;15.73;14.83;;;29.60;66.10;;;;;;5028765;28;20479;-71
2021/08/25 10:19:38;;;;;;;15.80;14.87;;;29.90;66.10;;;;;;5028842;27;20928;-70
2021/08/25 10:22:26;;;;;;;15.90;15.00;;;29.90;65.60;;;;;;5026631;28;21027;-70
2021/08/25 10:25:01;;;;;;;15.40;14.60;;;29.70;69.40;;;;;;5024556;28;20994;-71
2021/08/25 10:27:30;;;;;;;15.33;14.33;;;30.30;65.80;;;;;;5032138;28;20459;-71
2021/08/25 10:30:07;;;;;;;15.50;14.60;;;29.60;63.60;;;;;;5024484;27;20460;-70
2021/08/25 10:32:36;;;;;;;15.20;14.20;;;29.10;62.60;;;;;;5027224;28;20486;-70
2021/08/25 10:35:26;;;;;;;15.47;14.50;;;29.30;65.10;;;;;;5020695;28;20487;-71
2021/08/25 10:38:14;;;;;;;16.30;15.33;;;28.80;62.40;;;;;;5028852;28;20451;-70
2021/08/25 10:40:41;;;;;;;16.17;14.90;;;28.10;64.70;;;;;;5027560;28;21082;-72
2021/08/25 10:43:09;;;;;;;15.47;14.47;;;27.70;63.40;;;;;;5025781;28;20504;-73
2021/08/25 10:45:59;;;;;;;15.20;14.20;;;27.40;64.70;;;;;;5023875;28;20484;-72
2021/08/25 10:48:44;;;;;;;15.63;14.63;;;27.60;63.70;;;;;;5027810;28;20455;-70
2021/08/25 10:51:27;;;;;;;15.00;14.13;;;27.80;65.80;;;;;;5027478;28;20463;-71
2021/08/25 10:53:55;;;;;;;15.83;14.80;;;28.30;63.00;;;;;;5029995;28;20512;-73
2021/08/25 10:56:31;;;;;;;14.60;13.80;;;28.40;61.70;;;;;;5022946;28;20461;-72
2021/08/25 10:59:02;;;;;;;14.10;13.20;;;28.30;63.10;;;;;;5034719;28;20447;-71
2021/08/25 11:01:30;;;;;;;16.30;15.30;;;28.30;64.10;;;;;;5021114;28;20837;-72
2021/08/25 11:03:58;;;;;;;15.43;14.33;;;29.10;64.40;;;;;;5023769;28;20488;-70
2021/08/25 11:06:51;;;;;;;15.60;14.70;;;29.90;60.00;;;;;;5018786;28;20461;-73
2021/08/25 11:09:23;;;;;;;15.27;14.47;;;30.50;62.30;;;;;;5020448;28;20452;-71
2021/08/25 11:11:53;;;;;;;16.03;15.03;;;31.00;58.10;;;;;;5023088;28;20567;-70
2021/08/25 11:14:25;;;;;;;15.70;14.60;;;30.70;57.20;;;;;;5031485;27;20464;-71
2021/08/25 11:16:54;;;;;;;15.57;14.70;;;30.70;57.40;;;;;;5030747;28;20495;-70
2021/08/25 11:19:30;;;;;;;15.83;14.73;;;31.20;57.10;;;;;;5028243;28;20771;-71
2021/08/25 11:22:01;;;;;;;15.90;14.90;;;30.90;56.90;;;;;;5031756;28;20463;-71
2021/08/25 11:24:37;;;;;;;15.90;15.00;;;30.90;56.80;;;;;;5019597;28;20722;-70
2021/08/25 11:27:05;;;;;;;16.97;15.70;;;31.20;56.20;;;;;;5020297;28;20468;-70
2021/08/25 11:29:32;;;;;;;17.27;16.00;;;31.80;56.00;;;;;;5026269;28;20463;-71
2021/08/25 11:32:05;;;;;;;16.70;15.70;;;31.90;54.60;;;;;;5027323;27;20467;-71
2021/08/25 11:34:32;;;;;;;17.70;16.60;;;31.90;54.50;;;;;;5028936;28;20448;-74
2021/08/25 11:37:04;;;;;;;18.03;16.63;;;31.90;54.50;;;;;;5025099;28;20467;-70
2021/08/25 11:39:32;;;;;;;17.70;16.60;;;30.90;55.20;;;;;;5029240;28;20455;-71
2021/08/25 11:42:00;;;;;;;18.00;16.80;;;31.50;56.40;;;;;;5026015;28;20822;-71
2021/08/25 11:44:44;;;;;;;18.20;16.83;;;31.60;55.30;;;;;;5029521;28;20541;-71
2021/08/25 11:47:20;;;;;;;17.77;16.67;;;32.10;54.80;;;;;;5028469;28;20951;-72
2021/08/25 11:49:49;;;;;;;17.73;16.23;;;31.60;55.30;;;;;;5034637;28;20471;-71
2021/08/25 11:52:19;;;;;;;17.07;16.00;;;30.60;55.60;;;;;;5027390;28;20468;-74
2021/08/25 11:54:47;;;;;;;16.17;15.20;;;30.60;55.00;;;;;;5026730;28;20459;-70
2021/08/25 11:57:15;;;;;;;17.77;16.57;;;30.30;55.40;;;;;;5030533;28;21029;-72
2021/08/25 11:59:57;;;;;;;16.50;15.40;;;30.00;56.10;;;;;;5019822;28;20472;-70
2021/08/25 12:02:25;;;;;;;17.13;15.83;;;29.60;56.50;;;;;;5022031;28;20542;-72
2021/08/25 12:04:52;;;;;;;16.10;15.20;;;29.50;55.70;;;;;;5032779;28;20484;-70
2021/08/25 12:07:21;;;;;;;16.83;15.20;;;29.50;57.30;;;;;;5023261;28;20521;-71
2021/08/25 12:09:48;;;;;;;16.43;15.33;;;29.50;56.90;;;;;;5028585;28;20540;-71
2021/08/25 12:12:15;;;;;;;17.87;16.73;;;30.10;58.30;;;;;;5027951;28;20468;-72
2021/08/25 12:14:56;;;;;;;18.03;16.83;;;30.00;55.30;;;;;;5021233;28;20524;-70
2021/08/25 12:17:23;;;;;;;17.97;16.30;;;29.20;57.30;;;;;;5021171;28;20504;-70
2021/08/25 12:20:01;;;;;;;16.40;15.30;;;28.90;56.30;;;;;;5027362;27;20559;-72
2021/08/25 12:22:31;;;;;;;18.33;17.17;;;29.00;57.50;;;;;;5022689;28;21019;-72
2021/08/25 12:25:00;;;;;;;17.47;15.87;;;29.60;56.70;;;;;;5020796;28;20526;-70
2021/08/25 12:27:43;;;;;;;17.80;16.50;;;29.60;57.10;;;;;;5017983;27;20979;-71
2021/08/25 12:30:13;;;;;;;17.60;15.90;;;29.70;55.30;;;;;;5026414;28;20998;-70
2021/08/25 12:32:44;;;;;;;18.37;17.00;;;29.70;54.70;;;;;;5023921;27;20720;-70
2021/08/25 12:35:11;;;;;;;16.83;15.63;;;29.70;53.00;;;;;;5023358;28;20900;-74